createdAt,value
2023-03-02T00:00:16.210Z,12.47
2023-03-02T00:02:44.936Z,11.77
2023-03-02T00:05:14.537Z,12.07
2023-03-02T00:07:42.614Z,12.63
2023-03-02T00:10:12.910Z,11.97
2023-03-02T00:12:40.841Z,11.83
2023-03-02T00:15:09.953Z,12.13
2023-03-02T00:17:38.117Z,12.00
2023-03-02T00:20:12.155Z,12.37
2023-03-02T00:22:40.983Z,12.53
2023-03-02T00:25:11.519Z,12.53
2023-03-02T00:27:39.586Z,12.90
2023-03-02T00:30:09.117Z,12.40
2023-03-02T00:32:37.021Z,12.87
2023-03-02T00:35:06.092Z,12.40
2023-03-02T00:37:35.136Z,12.70
2023-03-02T00:40:03.795Z,12.50
2023-03-02T00:42:33.112Z,12.30
2023-03-02T00:45:01.698Z,13.03
2023-03-02T00:47:30.107Z,13.27
2023-03-02T00:49:58.093Z,12.27
2023-03-02T00:52:25.862Z,12.03
2023-03-02T00:54:53.672Z,13.17
2023-03-02T00:57:21.560Z,12.27
2023-03-02T00:59:50.841Z,12.03
2023-03-02T01:02:21.522Z,12.63
2023-03-02T01:04:49.969Z,12.33
2023-03-02T01:07:20.701Z,12.50
2023-03-02T01:09:49.568Z,13.13
2023-03-02T01:12:18.156Z,12.77
2023-03-02T01:14:48.484Z,13.10
2023-03-02T01:17:17.873Z,13.90
2023-03-02T01:19:45.894Z,13.70
2023-03-02T01:22:14.013Z,13.03
2023-03-02T01:24:41.846Z,12.77
2023-03-02T01:27:09.677Z,13.23
2023-03-02T01:29:38.118Z,13.60
2023-03-02T01:32:06.630Z,12.83
2023-03-02T01:34:36.290Z,13.30
2023-03-02T01:37:04.266Z,13.20
2023-03-02T01:39:32.251Z,12.97
2023-03-02T01:42:00.068Z,13.63
2023-03-02T01:44:39.800Z,12.70
2023-03-02T01:47:14.096Z,12.03
2023-03-02T01:49:47.517Z,12.83
2023-03-02T01:52:16.090Z,12.90
2023-03-02T01:54:45.159Z,12.70
2023-03-02T01:57:12.982Z,12.97
2023-03-02T01:59:41.846Z,12.77
2023-03-02T02:02:11.723Z,12.60
2023-03-02T02:04:41.867Z,12.00
2023-03-02T02:07:11.460Z,12.10
2023-03-02T02:09:41.903Z,13.13
2023-03-02T02:12:14.624Z,13.03
2023-03-02T02:14:43.355Z,13.57
2023-03-02T02:17:12.291Z,12.23
2023-03-02T02:19:52.808Z,12.90
2023-03-02T02:22:30.894Z,12.10
2023-03-02T02:25:00.524Z,12.93
2023-03-02T02:27:33.817Z,12.20
2023-03-02T02:30:05.244Z,12.23
2023-03-02T02:32:36.054Z,12.13
2023-03-02T02:35:06.314Z,13.10
2023-03-02T02:37:38.409Z,13.17
2023-03-02T02:40:09.109Z,12.63
2023-03-02T02:42:40.938Z,12.13
2023-03-02T02:45:19.124Z,13.23
2023-03-02T02:47:47.644Z,12.17
2023-03-02T02:50:19.224Z,12.90
2023-03-02T02:52:48.730Z,12.83
2023-03-02T02:55:18.781Z,11.93
2023-03-02T02:57:48.447Z,12.20
2023-03-02T03:00:20.113Z,11.37
2023-03-02T03:02:59.367Z,11.83
2023-03-02T03:05:27.253Z,12.17
2023-03-02T03:08:08.153Z,11.10
2023-03-02T03:10:40.323Z,13.00
2023-03-02T03:13:11.427Z,12.20
2023-03-02T03:15:39.454Z,13.00
2023-03-02T03:18:07.321Z,13.27
2023-03-02T03:20:35.450Z,12.87
2023-03-02T03:23:03.297Z,12.53
2023-03-02T03:25:32.177Z,13.50
2023-03-02T03:28:06.443Z,11.73
2023-03-02T03:30:35.888Z,12.77
2023-03-02T03:33:03.843Z,12.27
2023-03-02T03:35:31.781Z,12.63
2023-03-02T03:37:59.786Z,11.83
2023-03-02T03:40:29.045Z,12.23
2023-03-02T03:42:56.789Z,12.50
2023-03-02T03:45:24.500Z,11.73
2023-03-02T03:47:53.862Z,11.80
2023-03-02T03:50:21.922Z,12.80
2023-03-02T03:52:50.079Z,11.30
2023-03-02T03:55:18.251Z,11.77
2023-03-02T03:57:46.158Z,12.30
2023-03-02T04:00:16.603Z,11.83
2023-03-02T04:02:44.905Z,11.20
2023-03-02T04:05:14.749Z,12.47
2023-03-02T04:07:42.899Z,12.37
2023-03-02T04:10:12.480Z,12.33
2023-03-02T04:12:41.585Z,12.47
2023-03-02T04:15:11.698Z,11.50
2023-03-02T04:17:39.578Z,12.03
2023-03-02T04:20:09.420Z,11.03
2023-03-02T04:22:38.928Z,11.23
2023-03-02T04:25:07.505Z,11.13
2023-03-02T04:27:35.275Z,11.03
2023-03-02T04:30:03.258Z,11.30
2023-03-02T04:32:31.422Z,10.57
2023-03-02T04:34:59.508Z,11.73
2023-03-02T04:37:27.875Z,11.30
2023-03-02T04:39:57.264Z,11.20
2023-03-02T04:42:25.016Z,11.33
2023-03-02T04:44:52.796Z,10.60
2023-03-02T04:47:20.559Z,11.10
2023-03-02T04:49:50.442Z,11.67
2023-03-02T04:52:18.604Z,10.83
2023-03-02T04:54:46.429Z,10.53
2023-03-02T04:57:15.930Z,9.97
2023-03-02T04:59:43.865Z,9.90
2023-03-02T05:02:12.024Z,10.37
2023-03-02T05:04:42.440Z,11.27
2023-03-02T05:07:10.346Z,10.83
2023-03-02T05:09:38.114Z,10.97
2023-03-02T05:12:06.644Z,10.83
2023-03-02T05:14:35.792Z,10.63
2023-03-02T05:17:03.588Z,10.17
2023-03-02T05:19:31.385Z,10.87
2023-03-02T05:21:59.235Z,10.70
2023-03-02T05:24:27.306Z,9.63
2023-03-02T05:26:55.059Z,9.67
2023-03-02T05:29:22.859Z,10.67
2023-03-02T05:31:52.339Z,10.10
2023-03-02T05:34:20.264Z,10.70
2023-03-02T05:36:47.981Z,10.30
2023-03-02T05:39:15.750Z,10.00
2023-03-02T05:41:43.520Z,10.80
2023-03-02T05:44:12.621Z,9.37
2023-03-02T05:46:40.617Z,10.97
2023-03-02T05:49:10.724Z,9.40
2023-03-02T05:51:38.451Z,9.57
2023-03-02T05:54:06.437Z,10.53
2023-03-02T05:56:34.518Z,9.40
2023-03-02T05:59:02.492Z,10.07
2023-03-02T06:01:30.336Z,8.37
2023-03-02T06:03:58.173Z,9.63
2023-03-02T06:06:27.276Z,8.83
2023-03-02T06:08:55.066Z,9.73
2023-03-02T06:11:22.806Z,9.67
2023-03-02T06:13:50.588Z,10.23
2023-03-02T06:16:18.399Z,9.97
2023-03-02T06:18:46.162Z,9.47
2023-03-02T06:21:14.043Z,10.50
2023-03-02T06:23:43.184Z,9.40
2023-03-02T06:26:11.522Z,9.40
2023-03-02T06:28:51.988Z,9.93
2023-03-02T06:31:20.952Z,9.50
2023-03-02T06:33:48.885Z,9.53
2023-03-02T06:36:17.152Z,9.53
2023-03-02T06:38:46.408Z,9.83
2023-03-02T06:41:14.162Z,9.60
2023-03-02T06:43:41.975Z,9.43
2023-03-02T06:46:10.001Z,9.80
2023-03-02T06:48:37.793Z,9.53
2023-03-02T06:51:07.668Z,10.33
2023-03-02T06:53:35.429Z,10.00
2023-03-02T06:56:05.065Z,9.90
2023-03-02T06:58:32.840Z,9.83
2023-03-02T07:01:00.612Z,9.53
2023-03-02T07:03:28.482Z,9.20
2023-03-02T07:05:56.337Z,10.00
2023-03-02T07:08:24.117Z,9.90
2023-03-02T07:10:51.895Z,9.43
2023-03-02T07:13:21.292Z,8.63
2023-03-02T07:15:49.068Z,9.17
2023-03-02T07:18:16.869Z,9.67
2023-03-02T07:20:44.613Z,9.77
2023-03-02T07:23:12.378Z,9.53
2023-03-02T07:25:40.116Z,9.83
2023-03-02T07:28:08.157Z,10.27
2023-03-02T07:30:37.345Z,9.80
2023-03-02T07:33:05.158Z,9.97
2023-03-02T07:35:32.930Z,10.90
2023-03-02T07:38:00.757Z,9.37
2023-03-02T07:40:28.556Z,9.57
2023-03-02T07:42:56.368Z,9.70
2023-03-02T07:45:25.022Z,9.67
2023-03-02T07:47:54.170Z,9.63
2023-03-02T07:50:21.922Z,9.67
2023-03-02T07:52:49.681Z,10.33
2023-03-02T07:55:17.703Z,9.63
2023-03-02T07:57:45.466Z,9.33
2023-03-02T08:00:14.110Z,10.27
2023-03-02T08:02:42.147Z,10.33
2023-03-02T08:05:12.101Z,9.77
2023-03-02T08:07:40.536Z,10.17
2023-03-02T08:10:08.761Z,8.87
2023-03-02T08:12:36.478Z,9.23
2023-03-02T08:15:05.145Z,9.60
2023-03-02T08:17:33.074Z,9.57
2023-03-02T08:20:00.823Z,9.20
2023-03-02T08:22:30.339Z,10.10
2023-03-02T08:24:58.169Z,9.60
2023-03-02T08:27:25.938Z,8.97
2023-03-02T08:29:54.323Z,9.10
2023-03-02T08:32:22.151Z,9.30
2023-03-02T08:34:51.868Z,9.37
2023-03-02T08:37:19.977Z,8.93
2023-03-02T08:39:49.523Z,8.93
2023-03-02T08:42:17.807Z,9.10
2023-03-02T08:44:45.639Z,8.87
2023-03-02T08:47:13.452Z,9.60
2023-03-02T08:49:41.353Z,9.77
2023-03-02T08:52:09.108Z,8.50
2023-03-02T08:54:40.631Z,9.67
2023-03-02T08:57:12.523Z,13.80
2023-03-02T08:59:40.645Z,9.70
2023-03-02T09:02:08.856Z,8.63
2023-03-02T09:04:36.783Z,8.63
2023-03-02T09:07:04.850Z,8.97
2023-03-02T09:09:32.606Z,9.23
2023-03-02T09:12:00.364Z,8.17
2023-03-02T09:14:29.613Z,8.97
2023-03-02T09:16:57.526Z,8.53
2023-03-02T09:19:25.406Z,8.37
2023-03-02T09:21:53.148Z,9.07
2023-03-02T09:24:20.900Z,7.97
2023-03-02T09:26:48.644Z,8.87
2023-03-02T09:29:16.408Z,8.83
2023-03-02T09:31:45.563Z,7.97
2023-03-02T09:34:13.350Z,7.97
2023-03-02T09:36:41.117Z,8.47
2023-03-02T09:39:12.419Z,8.30
2023-03-02T09:42:14.620Z,7.70
2023-03-02T09:45:05.497Z,7.83
2023-03-02T09:47:39.764Z,8.13
2023-03-02T09:50:23.379Z,8.03
2023-03-02T09:52:58.067Z,7.90
2023-03-02T09:55:29.428Z,8.00
2023-03-02T09:57:57.217Z,7.57
2023-03-02T10:00:28.637Z,8.23
2023-03-02T10:03:11.327Z,7.80
2023-03-02T10:05:44.700Z,7.57
2023-03-02T10:08:13.866Z,8.00
2023-03-02T10:10:45.496Z,7.67
2023-03-02T10:13:21.523Z,7.73
2023-03-02T10:15:57.323Z,26.27
2023-03-02T10:18:31.409Z,7.80
2023-03-02T10:21:02.883Z,7.50
2023-03-02T10:23:44.429Z,7.17
2023-03-02T10:26:19.338Z,7.33
2023-03-02T10:28:50.378Z,7.33
2023-03-02T10:31:25.655Z,7.47
2023-03-02T10:33:55.211Z,6.70
2023-03-02T10:36:25.653Z,6.87
2023-03-02T10:38:53.446Z,7.57
2023-03-02T10:41:25.326Z,7.27
2023-03-02T10:43:55.697Z,6.47
2023-03-02T10:46:23.487Z,7.73
2023-03-02T10:48:54.230Z,7.27
2023-03-02T10:51:27.248Z,6.47
2023-03-02T10:54:08.739Z,6.40
2023-03-02T10:56:36.862Z,6.80
2023-03-02T10:59:14.634Z,6.37
2023-03-02T11:01:42.499Z,6.77
2023-03-02T11:04:16.347Z,6.07
2023-03-02T11:06:44.144Z,6.47
2023-03-02T11:09:15.355Z,5.70
2023-03-02T11:11:51.117Z,6.17
2023-03-02T11:14:19.273Z,5.60
2023-03-02T11:16:47.103Z,6.43
2023-03-02T11:19:18.794Z,6.27
2023-03-02T11:21:50.143Z,6.57
2023-03-02T11:24:20.198Z,6.00
2023-03-02T11:26:51.100Z,6.30
2023-03-02T11:29:26.739Z,5.77
2023-03-02T11:32:00.356Z,5.80
2023-03-02T11:34:33.847Z,5.97
2023-03-02T11:37:07.111Z,5.67
2023-03-02T11:39:54.606Z,5.77
2023-03-02T11:42:26.825Z,6.50
2023-03-02T11:44:54.655Z,5.87
2023-03-02T11:47:22.645Z,6.50
2023-03-02T11:49:55.950Z,6.03
2023-03-02T11:52:26.249Z,5.67
2023-03-02T11:54:55.965Z,5.20
2023-03-02T11:57:28.586Z,6.23
2023-03-02T11:59:58.422Z,6.73
2023-03-02T12:02:27.226Z,6.27
2023-03-02T12:05:05.370Z,7.47
2023-03-02T12:07:33.464Z,7.30
2023-03-02T12:10:03.693Z,7.10
2023-03-02T12:12:48.016Z,6.50
2023-03-02T12:15:30.873Z,6.53
2023-03-02T12:17:58.671Z,7.43
2023-03-02T12:20:32.970Z,6.27
2023-03-02T12:23:21.165Z,6.80
2023-03-02T12:25:51.596Z,7.03
2023-03-02T12:28:40.998Z,6.77
2023-03-02T12:31:11.992Z,6.90
2023-03-02T12:33:43.937Z,6.83
2023-03-02T12:36:16.540Z,7.03
2023-03-02T12:38:48.097Z,6.73
2023-03-02T12:41:27.566Z,6.50
2023-03-02T12:44:09.370Z,6.67
2023-03-02T12:46:40.319Z,5.73
2023-03-02T12:49:34.585Z,6.80
2023-03-02T12:52:05.359Z,6.43
2023-03-02T12:54:34.990Z,6.20
2023-03-02T12:57:06.271Z,5.67
2023-03-02T12:59:34.154Z,5.43
2023-03-02T13:02:16.114Z,6.07
2023-03-02T13:04:44.044Z,5.90
2023-03-02T13:07:21.526Z,5.80
2023-03-02T13:09:56.599Z,6.10
2023-03-02T13:12:26.904Z,6.10
2023-03-02T13:14:57.595Z,5.90
2023-03-02T13:17:29.535Z,5.80
2023-03-02T13:19:57.868Z,5.80
2023-03-02T13:22:27.318Z,5.90
2023-03-02T13:25:02.275Z,5.40
2023-03-02T13:27:30.782Z,5.77
2023-03-02T13:30:10.199Z,5.00
2023-03-02T13:32:41.132Z,6.27
2023-03-02T13:35:17.722Z,5.47
2023-03-02T13:37:46.870Z,5.53
2023-03-02T13:40:33.636Z,5.80
2023-03-02T13:43:01.408Z,5.70
2023-03-02T13:45:30.470Z,5.17
2023-03-02T13:48:00.532Z,5.47
2023-03-02T13:50:29.979Z,6.03
2023-03-02T13:53:02.475Z,6.03
2023-03-02T13:55:30.318Z,5.33
2023-03-02T13:57:58.490Z,4.80
2023-03-02T14:00:29.793Z,6.10
2023-03-02T14:02:57.550Z,7.07
2023-03-02T14:05:27.153Z,6.97
2023-03-02T14:07:54.932Z,6.93
2023-03-02T14:10:24.089Z,6.80
2023-03-02T14:12:55.994Z,7.37
2023-03-02T14:15:24.137Z,7.03
2023-03-02T14:17:51.913Z,7.07
2023-03-02T14:20:20.948Z,6.53
2023-03-02T14:22:50.531Z,6.73
2023-03-02T14:25:19.526Z,6.50
2023-03-02T14:27:48.665Z,6.73
2023-03-02T14:30:19.407Z,7.13
2023-03-02T14:32:47.232Z,7.27
2023-03-02T14:35:16.829Z,7.77
2023-03-02T14:37:46.220Z,7.23
2023-03-02T14:40:23.227Z,7.47
2023-03-02T14:42:53.206Z,7.37
2023-03-02T14:45:21.553Z,7.50
2023-03-02T14:47:49.483Z,7.03
2023-03-02T14:50:17.709Z,7.30
2023-03-02T14:52:47.856Z,6.93
2023-03-02T14:55:20.387Z,6.83
2023-03-02T14:57:50.005Z,6.63
2023-03-02T15:00:20.144Z,6.27
2023-03-02T15:02:48.361Z,6.97
2023-03-02T15:05:16.490Z,7.17
2023-03-02T15:07:44.426Z,7.33
2023-03-02T15:10:14.613Z,6.73
2023-03-02T15:12:42.368Z,6.73
2023-03-02T15:15:11.092Z,7.60
2023-03-02T15:17:41.683Z,7.13
2023-03-02T15:20:14.144Z,6.90
2023-03-02T15:22:41.874Z,7.80
2023-03-02T15:25:10.457Z,6.87
2023-03-02T15:27:38.198Z,6.97
2023-03-02T15:30:06.769Z,7.20
2023-03-02T15:32:34.533Z,7.13
2023-03-02T15:35:04.060Z,7.80
2023-03-02T15:37:31.793Z,7.17
2023-03-02T15:39:59.543Z,7.53
2023-03-02T15:42:27.383Z,7.20
2023-03-02T15:44:55.887Z,7.57
2023-03-02T15:47:26.283Z,6.97
2023-03-02T15:49:54.049Z,7.07
2023-03-02T15:52:23.157Z,7.63
2023-03-02T15:54:51.161Z,7.03
2023-03-02T15:57:19.037Z,7.32
2023-03-02T15:59:46.822Z,7.07
2023-03-02T16:02:15.198Z,7.50
2023-03-02T16:04:42.992Z,7.30
2023-03-02T16:07:10.823Z,7.97
2023-03-02T16:09:39.902Z,7.47
2023-03-02T16:12:07.719Z,8.47
2023-03-02T16:14:35.576Z,7.20
2023-03-02T16:17:03.342Z,7.27
2023-03-02T16:19:32.238Z,7.53
2023-03-02T16:21:59.998Z,8.13
2023-03-02T16:24:27.713Z,8.10
2023-03-02T16:26:56.819Z,7.67
2023-03-02T16:29:25.219Z,8.07
2023-03-02T16:31:53.089Z,6.80
2023-03-02T16:34:21.045Z,7.70
2023-03-02T16:36:48.814Z,7.10
2023-03-02T16:39:16.553Z,7.77
2023-03-02T16:41:46.228Z,7.10
2023-03-02T16:44:16.129Z,6.80
2023-03-02T16:46:44.504Z,6.57
2023-03-02T16:49:13.108Z,6.93
2023-03-02T16:51:41.333Z,6.57
2023-03-02T16:54:09.445Z,6.37
2023-03-02T16:56:37.189Z,7.40
2023-03-02T16:59:04.916Z,6.30
2023-03-02T17:01:34.109Z,5.70
2023-03-02T17:04:03.214Z,6.27
2023-03-02T17:06:32.030Z,5.90
2023-03-02T17:08:59.789Z,6.00
2023-03-02T17:11:27.592Z,6.13
2023-03-02T17:13:55.317Z,5.70
2023-03-02T17:16:23.235Z,5.47
2023-03-02T17:18:52.483Z,5.07
2023-03-02T17:21:20.225Z,5.27
2023-03-02T17:23:48.953Z,5.37
2023-03-02T17:26:17.554Z,4.87
2023-03-02T17:28:45.258Z,5.07
2023-03-02T17:31:13.245Z,5.07
2023-03-02T17:33:41.173Z,4.40
2023-03-02T17:36:12.150Z,5.10
2023-03-02T17:38:40.398Z,4.70
2023-03-02T17:41:09.168Z,4.80
2023-03-02T17:43:38.648Z,4.70
2023-03-02T17:46:11.929Z,4.80
2023-03-02T17:48:39.914Z,4.20
2023-03-02T17:51:07.670Z,4.63
2023-03-02T17:53:36.797Z,4.73
2023-03-02T17:56:04.633Z,4.57
2023-03-02T17:58:44.360Z,4.07
2023-03-02T18:01:15.707Z,4.67
2023-03-02T18:03:45.022Z,4.23
2023-03-02T18:06:13.296Z,3.93
2023-03-02T18:08:42.415Z,4.27
2023-03-02T18:11:10.149Z,4.10
2023-03-02T18:13:37.930Z,4.40
2023-03-02T18:16:06.190Z,3.83
2023-03-02T18:18:33.939Z,4.23
2023-03-02T18:21:02.110Z,4.07
2023-03-02T18:23:30.084Z,4.10
2023-03-02T18:26:00.681Z,4.00
2023-03-02T18:28:28.625Z,3.60
2023-03-02T18:30:56.364Z,4.67
2023-03-02T18:33:24.126Z,4.10
2023-03-02T18:35:52.070Z,3.77
2023-03-02T18:38:19.855Z,4.30
2023-03-02T18:40:47.603Z,4.10
2023-03-02T18:43:16.724Z,4.10
2023-03-02T18:45:44.647Z,4.77
2023-03-02T18:48:12.416Z,4.43
2023-03-02T18:50:40.113Z,3.93
2023-03-02T18:53:08.684Z,4.33
2023-03-02T18:55:37.437Z,4.00
2023-03-02T18:58:05.529Z,4.57
2023-03-02T19:00:37.527Z,4.00
2023-03-02T19:03:05.307Z,4.07
2023-03-02T19:05:33.049Z,4.50
2023-03-02T19:08:02.789Z,4.03
2023-03-02T19:10:30.598Z,4.60
2023-03-02T19:12:58.348Z,4.13
2023-03-02T19:15:26.154Z,4.70
2023-03-02T19:17:55.297Z,4.33
2023-03-02T19:20:23.468Z,3.70
2023-03-02T19:22:51.267Z,4.30
2023-03-02T19:25:19.023Z,4.37
2023-03-02T19:27:46.765Z,4.80
2023-03-02T19:30:18.156Z,4.20
2023-03-02T19:32:46.267Z,4.40
2023-03-02T19:35:17.974Z,5.33
2023-03-02T19:37:46.163Z,4.33
2023-03-02T19:40:15.125Z,4.47
2023-03-02T19:42:45.198Z,4.47
2023-03-02T19:45:16.480Z,4.20
2023-03-02T19:47:44.855Z,4.10
2023-03-02T19:50:13.517Z,4.67
2023-03-02T19:52:43.068Z,5.93
2023-03-02T19:55:12.861Z,4.47
2023-03-02T19:57:41.608Z,4.37
2023-03-02T20:00:11.864Z,4.37
2023-03-02T20:02:40.826Z,4.17
2023-03-02T20:05:09.536Z,4.33
2023-03-02T20:07:39.780Z,4.30
2023-03-02T20:10:14.434Z,4.10
2023-03-02T20:12:42.750Z,4.20
2023-03-02T20:15:11.178Z,4.07
2023-03-02T20:17:38.920Z,4.20
2023-03-02T20:20:07.678Z,4.70
2023-03-02T20:22:35.404Z,4.63
2023-03-02T20:25:03.209Z,4.73
2023-03-02T20:27:32.327Z,4.70
2023-03-02T20:30:00.259Z,4.60
2023-03-02T20:32:28.062Z,4.27
2023-03-02T20:34:55.867Z,3.97
2023-03-02T20:37:25.843Z,4.67
2023-03-02T20:39:54.032Z,4.03
2023-03-02T20:42:22.110Z,4.40
2023-03-02T20:44:51.951Z,4.80
2023-03-02T20:47:20.085Z,4.87
2023-03-02T20:49:47.796Z,4.70
2023-03-02T20:52:15.758Z,4.80
2023-03-02T20:54:45.139Z,4.97
2023-03-02T20:57:20.951Z,4.47
2023-03-02T20:59:52.798Z,4.90
2023-03-02T21:02:20.776Z,4.70
2023-03-02T21:04:48.894Z,5.37
2023-03-02T21:07:16.977Z,5.23
2023-03-02T21:09:45.282Z,5.50
2023-03-02T21:12:13.335Z,4.63
2023-03-02T21:14:41.456Z,4.50
2023-03-02T21:17:11.069Z,5.13
2023-03-02T21:19:38.893Z,4.80
2023-03-02T21:22:06.702Z,4.80
2023-03-02T21:24:34.486Z,4.70
2023-03-02T21:27:02.605Z,5.13
2023-03-02T21:29:30.436Z,5.30
2023-03-02T21:31:58.391Z,4.77
2023-03-02T21:34:27.508Z,5.60
2023-03-02T21:36:55.236Z,4.87
2023-03-02T21:39:23.877Z,5.07
2023-03-02T21:41:52.165Z,5.00
2023-03-02T21:44:20.457Z,4.80
2023-03-02T21:46:48.408Z,5.77
2023-03-02T21:49:17.718Z,5.83
2023-03-02T21:51:48.948Z,5.73
2023-03-02T21:54:17.664Z,5.70
2023-03-02T21:56:45.420Z,5.33
2023-03-02T21:59:13.897Z,5.07
2023-03-02T22:01:41.665Z,5.00
2023-03-02T22:04:09.520Z,5.20
2023-03-02T22:06:37.671Z,4.97
2023-03-02T22:09:06.924Z,4.87
2023-03-02T22:11:36.559Z,5.03
2023-03-02T22:14:11.701Z,20.60
2023-03-02T22:16:41.346Z,11.73
2023-03-02T22:19:21.659Z,5.80
2023-03-02T22:21:50.488Z,5.33
2023-03-02T22:24:24.025Z,5.33
2023-03-02T22:26:59.658Z,5.60
2023-03-02T22:29:31.254Z,5.37
2023-03-02T22:32:02.543Z,5.73
2023-03-02T22:34:31.895Z,5.37
2023-03-02T22:37:02.564Z,5.93
2023-03-02T22:39:33.229Z,6.00
2023-03-02T22:42:06.295Z,5.60
2023-03-02T22:44:34.836Z,5.83
2023-03-02T22:47:02.686Z,4.93
2023-03-02T22:49:30.828Z,5.90
2023-03-02T22:52:02.105Z,5.57
2023-03-02T22:54:37.357Z,5.43
2023-03-02T22:57:08.802Z,5.83
2023-03-02T22:59:38.007Z,6.30
2023-03-02T23:02:14.999Z,6.33
2023-03-02T23:04:50.272Z,6.67
2023-03-02T23:07:20.125Z,5.70
2023-03-02T23:09:50.289Z,6.47
2023-03-02T23:12:21.424Z,5.83
2023-03-02T23:14:50.910Z,6.53
2023-03-02T23:17:22.179Z,6.47
2023-03-02T23:20:45.919Z,6.40
2023-03-02T23:23:14.364Z,6.60
2023-03-02T23:25:44.033Z,6.90
2023-03-02T23:28:12.427Z,7.27
2023-03-02T23:30:40.214Z,6.20
2023-03-02T23:33:08.464Z,7.00
2023-03-02T23:35:36.442Z,6.97
2023-03-02T23:38:04.366Z,6.70
2023-03-02T23:40:32.307Z,7.13
2023-03-02T23:43:01.537Z,6.63
2023-03-02T23:45:29.834Z,7.67
2023-03-02T23:47:59.122Z,6.83
2023-03-02T23:50:27.088Z,7.33
2023-03-02T23:52:54.960Z,6.07
2023-03-02T23:55:22.914Z,6.97
2023-03-02T23:57:50.873Z,7.10
